createdAt,value
2022-09-05T00:01:47.320Z,95568.16
2022-09-05T00:04:36.078Z,95564.72
2022-09-05T00:07:37.384Z,95566.59
2022-09-05T00:10:22.846Z,95565.53
2022-09-05T00:13:07.475Z,95567.13
2022-09-05T00:15:48.967Z,95567.13
2022-09-05T00:24:19.194Z,95563.97
2022-09-05T00:24:22.267Z,95572.91
2022-09-05T00:24:54.723Z,95559.22
2022-09-05T00:27:21.183Z,95565.53
2022-09-05T00:31:51.869Z,95562.38
2022-09-05T00:33:19.055Z,95563.41
2022-09-05T00:35:57.980Z,95568.69
2022-09-05T00:38:33.468Z,95573.44
2022-09-05T00:41:12.970Z,95569.72
2022-09-05T00:43:43.356Z,95575.00
2022-09-05T00:46:26.817Z,95581.31
2022-09-05T00:49:16.356Z,95572.34
2022-09-05T00:52:00.402Z,95578.66
2022-09-05T00:54:41.066Z,95580.78
2022-09-05T00:57:30.708Z,95571.78
2022-09-05T01:00:18.110Z,95579.97
2022-09-05T01:03:10.096Z,95577.59
2022-09-05T01:05:45.809Z,95581.25
2022-09-05T01:08:46.809Z,95589.16
2022-09-05T01:11:32.838Z,95551.69
2022-09-05T01:14:21.336Z,95581.78
2022-09-05T01:16:54.470Z,95583.13
2022-09-05T01:19:53.344Z,95586.03
2022-09-05T01:22:38.397Z,95578.91
2022-09-05T01:25:23.932Z,95587.06
2022-09-05T01:29:13.007Z,95583.38
2022-09-05T01:31:23.814Z,95582.59
2022-09-05T01:34:14.977Z,95574.94
2022-09-05T01:36:53.981Z,95578.63
2022-09-05T01:40:14.548Z,95573.06
2022-09-05T01:43:14.408Z,95576.47
2022-09-05T01:46:00.975Z,95574.88
2022-09-05T01:48:48.916Z,95579.09
2022-09-05T01:51:28.634Z,95571.72
2022-09-05T01:54:10.155Z,95574.88
2022-09-05T01:57:19.691Z,95584.16
2022-09-05T01:59:52.175Z,95574.41
2022-09-05T02:02:36.660Z,95583.34
2022-09-05T02:05:49.204Z,95593.88
2022-09-05T02:08:16.338Z,95578.31
2022-09-05T02:11:09.885Z,95558.47
2022-09-05T02:13:36.797Z,95581.69
2022-09-05T02:16:25.947Z,95582.47
2022-09-05T02:18:55.558Z,95567.50
2022-09-05T02:21:28.184Z,95575.38
2022-09-05T02:24:07.224Z,95583.81
2022-09-05T02:26:51.534Z,95571.09
2022-09-05T02:29:44.020Z,95577.97
2022-09-05T02:32:21.288Z,95582.19
2022-09-05T02:35:06.992Z,95576.91
2022-09-05T02:41:32.056Z,95578.44
2022-09-05T02:45:12.358Z,95579.53
2022-09-05T02:45:12.933Z,95580.03
2022-09-05T02:46:30.651Z,95584.78
2022-09-05T02:49:00.553Z,95583.22
2022-09-05T02:57:25.371Z,95590.56
2022-09-05T02:57:34.406Z,95585.28
2022-09-05T02:58:07.250Z,95584.50
2022-09-05T03:00:51.033Z,95593.69
2022-09-05T03:03:36.032Z,95593.16
2022-09-05T03:06:34.237Z,95592.38
2022-09-05T03:09:17.077Z,95588.13
2022-09-05T03:12:27.106Z,95592.59
2022-09-05T03:15:22.152Z,95592.06
2022-09-05T03:17:55.222Z,95596.25
2022-09-05T03:21:15.573Z,95600.44
2022-09-05T03:24:05.466Z,95598.84
2022-09-05T03:27:02.114Z,95608.03
2022-09-05T03:29:46.915Z,95605.69
2022-09-05T03:32:49.147Z,95609.84
2022-09-05T03:35:31.253Z,95601.41
2022-09-05T03:38:10.591Z,95610.38
2022-09-05T03:40:59.722Z,95610.38
2022-09-05T03:43:47.902Z,95607.47
2022-09-05T03:46:23.773Z,95611.38
2022-09-05T03:50:47.904Z,95619.81
2022-09-05T03:54:57.047Z,95626.38
2022-09-05T03:57:27.725Z,95629.75
2022-09-05T03:58:55.950Z,95629.75
2022-09-05T04:03:05.747Z,95633.91
2022-09-05T04:08:13.434Z,95640.22
2022-09-05T04:08:18.789Z,95647.06
2022-09-05T04:11:01.601Z,95643.28
2022-09-05T04:13:33.953Z,95645.19
2022-09-05T04:16:06.460Z,95646.25
2022-09-05T04:18:51.909Z,95648.16
2022-09-05T04:21:29.961Z,95650.81
2022-09-05T04:24:25.526Z,95653.47
2022-09-05T04:27:17.168Z,95656.13
2022-09-05T04:30:39.630Z,95650.81
2022-09-05T04:33:19.967Z,95656.41
2022-09-05T04:36:18.333Z,95657.22
2022-09-05T04:38:46.535Z,95660.41
2022-09-05T04:41:21.379Z,95660.19
2022-09-05T04:44:16.438Z,95670.56
2022-09-05T04:46:56.630Z,95671.38
2022-09-05T04:49:45.483Z,95674.34
2022-09-05T04:52:36.764Z,95674.91
2022-09-05T04:55:16.052Z,95679.63
2022-09-05T04:57:48.847Z,95685.47
2022-09-05T05:06:01.881Z,95691.50
2022-09-05T05:06:15.111Z,95688.03
2022-09-05T05:06:42.304Z,95674.53
2022-09-05T05:09:17.499Z,95691.28
2022-09-05T05:17:56.266Z,95681.28
2022-09-05T05:17:58.509Z,95707.22
2022-09-05T05:18:13.402Z,95705.41
2022-09-05T05:21:07.709Z,95706.78
2022-09-05T05:23:43.538Z,95709.47
2022-09-05T05:26:20.887Z,95713.19
2022-09-05T05:28:51.941Z,95719.28
2022-09-05T05:31:29.481Z,95721.97
2022-09-05T05:34:02.227Z,95718.81
2022-09-05T05:36:36.480Z,95720.44
2022-09-05T05:39:12.709Z,95719.66
2022-09-05T05:41:48.794Z,95722.81
2022-09-05T05:44:19.743Z,95712.84
2022-09-05T05:46:58.364Z,95727.69
2022-09-05T05:49:34.451Z,95731.91
2022-09-05T05:52:19.423Z,95734.03
2022-09-05T05:55:23.703Z,95727.69
2022-09-05T05:58:06.702Z,95728.75
2022-09-05T06:00:52.047Z,95731.66
2022-09-05T06:03:47.982Z,95733.47
2022-09-05T06:06:59.445Z,95735.03
2022-09-05T06:14:56.141Z,95729.72
2022-09-05T06:15:04.805Z,95733.50
2022-09-05T06:16:13.915Z,95739.84
2022-09-05T06:19:12.136Z,95745.59
2022-09-05T06:22:09.629Z,95739.75
2022-09-05T06:25:17.370Z,95732.81
2022-09-05T06:28:08.738Z,95744.16
2022-09-05T06:31:30.798Z,95751.84
2022-09-05T06:34:32.614Z,95759.72
2022-09-05T06:37:33.453Z,95756.19
2022-09-05T06:40:18.418Z,95767.28
2022-09-05T06:43:22.727Z,95768.66
2022-09-05T06:45:58.699Z,95761.22
2022-09-05T06:49:32.119Z,95772.81
2022-09-05T06:52:29.545Z,95767.59
2022-09-05T06:55:35.617Z,95767.97
2022-09-05T06:58:36.400Z,95766.91
2022-09-05T07:01:08.895Z,95759.03
2022-09-05T07:05:24.817Z,95740.50
2022-09-05T07:07:27.620Z,95759.38
2022-09-05T07:10:22.151Z,95761.31
2022-09-05T07:13:25.003Z,95761.50
2022-09-05T07:16:26.522Z,95762.41
2022-09-05T07:19:29.908Z,95761.31
2022-09-05T07:22:47.040Z,95752.28
2022-09-05T07:25:26.324Z,95747.53
2022-09-05T07:28:29.163Z,95751.59
2022-09-05T07:30:52.952Z,95754.31
2022-09-05T07:33:28.780Z,95750.25
2022-09-05T07:36:05.578Z,95737.34
2022-09-05T07:38:55.071Z,95740.31
2022-09-05T07:41:30.742Z,95750.03
2022-09-05T07:44:18.373Z,95748.06
2022-09-05T07:46:56.488Z,95748.66
2022-09-05T07:49:27.977Z,95748.44
2022-09-05T07:56:55.698Z,95744.22
2022-09-05T07:56:56.543Z,95742.09
2022-09-05T07:57:51.044Z,95751.06
2022-09-05T08:00:27.219Z,95745.13
2022-09-05T08:03:01.248Z,95747.91
2022-09-05T08:05:39.323Z,95737.78
2022-09-05T08:08:11.739Z,95745.44
2022-09-05T08:11:23.277Z,95745.31
2022-09-05T08:13:46.590Z,95753.84
2022-09-05T08:16:21.302Z,95750.25
2022-09-05T08:19:26.110Z,95750.09
2022-09-05T08:21:53.938Z,95749.50
2022-09-05T08:24:26.492Z,95762.56
2022-09-05T08:27:04.898Z,95758.63
2022-09-05T08:29:41.129Z,95754.69
2022-09-05T08:32:25.321Z,95749.97
2022-09-05T08:35:01.465Z,95754.50
2022-09-05T08:37:30.843Z,95759.25
2022-09-05T08:40:11.082Z,95754.91
2022-09-05T08:43:44.369Z,95752.19
2022-09-05T08:46:40.815Z,95750.97
2022-09-05T08:49:19.070Z,95753.44
2022-09-05T08:52:14.705Z,95756.19
2022-09-05T08:54:47.194Z,95755.69
2022-09-05T08:57:45.226Z,95749.81
2022-09-05T09:00:24.535Z,95747.00
2022-09-05T09:03:27.405Z,95747.38
2022-09-05T09:06:16.019Z,95749.38
2022-09-05T09:08:55.717Z,95753.94
2022-09-05T09:11:36.650Z,95745.75
2022-09-05T09:14:31.754Z,95739.91
2022-09-05T09:17:17.904Z,95742.56
2022-09-05T09:19:59.789Z,95738.78
2022-09-05T09:22:57.195Z,95747.09
2022-09-05T09:25:38.882Z,95744.06
2022-09-05T09:28:49.488Z,95743.19
2022-09-05T09:31:29.845Z,95741.16
2022-09-05T09:34:21.226Z,95753.34
2022-09-05T09:37:03.626Z,95746.16
2022-09-05T09:39:47.022Z,95734.53
2022-09-05T09:42:33.167Z,95745.84
2022-09-05T09:45:27.775Z,95734.66
2022-09-05T09:48:10.767Z,95740.03
2022-09-05T09:50:49.202Z,95742.00
2022-09-05T09:53:44.845Z,95739.72
2022-09-05T09:56:14.746Z,95748.53
2022-09-05T09:59:08.429Z,95729.47
2022-09-05T10:01:54.503Z,95727.31
2022-09-05T10:10:40.053Z,95735.06
2022-09-05T10:11:00.444Z,95726.47
2022-09-05T10:11:55.409Z,95726.59
2022-09-05T10:15:30.325Z,95721.50
2022-09-05T10:17:58.537Z,95720.38
2022-09-05T10:20:31.165Z,95714.41
2022-09-05T10:23:04.207Z,95725.72
2022-09-05T10:26:01.426Z,95710.00
2022-09-05T10:28:43.805Z,95710.56
2022-09-05T10:32:32.652Z,95708.53
2022-09-05T10:35:12.865Z,95721.94
2022-09-05T10:37:45.474Z,95714.31
2022-09-05T10:40:17.823Z,95722.50
2022-09-05T10:42:58.168Z,95720.03
2022-09-05T10:45:49.515Z,95714.47
2022-09-05T10:48:36.758Z,95719.13
2022-09-05T10:51:27.331Z,95720.41
2022-09-05T10:54:15.202Z,95713.47
2022-09-05T10:56:55.720Z,95698.13
2022-09-05T11:02:20.876Z,95716.28
2022-09-05T11:02:34.860Z,95701.81
2022-09-05T11:05:08.215Z,95711.63
2022-09-05T11:08:05.241Z,95702.53
2022-09-05T11:10:35.265Z,95707.31
2022-09-05T11:13:47.637Z,95711.16
2022-09-05T11:16:49.382Z,95712.25
2022-09-05T11:19:28.783Z,95699.38
2022-09-05T11:22:21.889Z,95693.63
2022-09-05T11:25:00.110Z,95698.59
2022-09-05T11:27:34.938Z,95695.72
2022-09-05T11:30:08.233Z,95693.03
2022-09-05T11:36:06.900Z,95702.84
2022-09-05T11:39:57.302Z,95698.47
2022-09-05T11:40:05.032Z,95693.94
2022-09-05T11:42:16.071Z,95691.31
2022-09-05T11:45:14.110Z,95687.44
2022-09-05T11:48:17.581Z,95691.88
2022-09-05T11:50:56.645Z,95686.78
2022-09-05T11:53:46.864Z,95688.66
2022-09-05T11:56:35.726Z,95685.06
2022-09-05T11:59:44.105Z,95680.25
2022-09-05T12:02:32.924Z,95682.00
2022-09-05T12:05:48.965Z,95681.63
2022-09-05T12:08:38.328Z,95673.56
2022-09-05T12:11:05.500Z,95687.56
2022-09-05T12:13:42.814Z,95679.72
2022-09-05T12:16:27.056Z,95679.03
2022-09-05T12:19:37.865Z,95679.75
2022-09-05T12:22:18.681Z,95665.28
2022-09-05T12:25:24.474Z,95679.00
2022-09-05T12:27:53.784Z,95671.03
2022-09-05T12:30:58.655Z,95648.88
2022-09-05T12:36:08.711Z,95672.53
2022-09-05T12:40:21.310Z,95677.47
2022-09-05T12:40:45.151Z,95669.06
2022-09-05T12:44:34.876Z,95673.69
2022-09-05T12:45:50.375Z,95675.06
2022-09-05T12:48:38.625Z,95680.41
2022-09-05T12:51:45.826Z,95681.13
2022-09-05T12:54:32.650Z,95666.06
2022-09-05T13:01:30.571Z,95685.50
2022-09-05T13:03:04.769Z,95675.06
2022-09-05T13:03:09.167Z,95673.59
2022-09-05T13:05:51.856Z,95650.47
2022-09-05T13:08:23.842Z,95673.09
2022-09-05T13:14:47.955Z,95666.94
2022-09-05T13:14:59.903Z,95664.19
2022-09-05T13:16:41.885Z,95650.31
2022-09-05T13:19:22.739Z,95630.59
2022-09-05T13:21:52.937Z,95664.66
2022-09-05T13:24:30.599Z,95658.66
2022-09-05T13:27:20.530Z,95660.56
2022-09-05T13:30:51.826Z,95647.41
2022-09-05T13:37:55.275Z,95648.09
2022-09-05T13:38:28.908Z,95651.38
2022-09-05T13:39:07.853Z,95658.91
2022-09-05T13:41:44.777Z,95649.56
2022-09-05T13:44:25.396Z,95656.56
2022-09-05T13:47:29.897Z,95646.66
2022-09-05T13:50:37.265Z,95650.47
2022-09-05T13:53:26.282Z,95654.47
2022-09-05T13:56:03.198Z,95645.16
2022-09-05T13:59:00.026Z,95647.13
2022-09-05T14:01:36.004Z,95649.06
2022-09-05T14:04:13.669Z,95648.19
2022-09-05T14:07:44.068Z,95650.28
2022-09-05T14:09:54.769Z,95647.09
2022-09-05T14:12:31.423Z,95646.22
2022-09-05T14:15:43.062Z,95656.19
2022-09-05T14:18:20.607Z,95658.28
2022-09-05T14:21:16.822Z,95668.75
2022-09-05T14:24:16.996Z,95678.59
2022-09-05T14:27:00.504Z,95681.00
2022-09-05T14:29:36.076Z,95674.75
2022-09-05T14:37:39.804Z,95672.09
2022-09-05T14:37:43.859Z,95680.91
2022-09-05T14:38:14.824Z,95669.53
2022-09-05T14:41:20.410Z,95678.97
2022-09-05T14:44:15.643Z,95671.09
2022-09-05T14:47:10.035Z,95664.44
2022-09-05T14:50:04.948Z,95676.19
2022-09-05T14:52:35.534Z,95675.06
2022-09-05T15:02:42.726Z,95669.75
2022-09-05T15:02:51.985Z,95672.69
2022-09-05T15:06:39.330Z,95668.25
2022-09-05T15:11:29.511Z,95676.09
2022-09-05T15:12:32.994Z,95680.69
2022-09-05T15:15:07.059Z,95678.03
2022-09-05T15:17:35.159Z,95667.94
2022-09-05T15:20:07.423Z,95662.63
2022-09-05T15:22:37.536Z,95665.06
2022-09-05T15:25:23.422Z,95674.72
2022-09-05T15:27:50.934Z,95676.19
2022-09-05T15:30:22.379Z,95675.75
2022-09-05T15:33:11.691Z,95674.53
2022-09-05T15:35:42.464Z,95678.25
2022-09-05T15:38:25.145Z,95663.94
2022-09-05T15:41:24.328Z,95673.84
2022-09-05T15:44:13.530Z,95678.47
2022-09-05T15:46:59.771Z,95678.00
2022-09-05T15:49:53.827Z,95673.38
2022-09-05T15:52:25.038Z,95681.22
2022-09-05T15:55:12.168Z,95682.72
2022-09-05T15:57:46.208Z,95675.88
2022-09-05T16:00:38.448Z,95681.22
2022-09-05T16:05:46.352Z,95682.91
2022-09-05T16:10:34.562Z,95681.16
2022-09-05T16:10:43.606Z,95672.97
2022-09-05T16:12:14.041Z,95642.97
2022-09-05T16:14:56.472Z,95671.16
2022-09-05T16:23:17.586Z,95669.28
2022-09-05T16:23:27.787Z,95664.41
2022-09-05T16:23:40.394Z,95666.50
2022-09-05T16:26:14.208Z,95670.59
2022-09-05T16:28:57.173Z,95672.34
2022-09-05T16:31:47.522Z,95673.59
2022-09-05T16:34:32.105Z,95669.84
2022-09-05T16:37:08.234Z,95669.81
2022-09-05T16:39:41.101Z,95668.75
2022-09-05T16:42:17.574Z,95676.84
2022-09-05T16:44:54.135Z,95662.84
2022-09-05T16:47:50.941Z,95670.75
2022-09-05T16:50:48.044Z,95665.22
2022-09-05T16:53:30.855Z,95671.06
2022-09-05T16:56:10.025Z,95672.50
2022-09-05T16:58:42.287Z,95645.38
2022-09-05T17:01:28.197Z,95667.28
2022-09-05T17:04:07.011Z,95654.06
2022-09-05T17:06:53.839Z,95666.97
2022-09-05T17:09:27.541Z,95657.44
2022-09-05T17:12:01.992Z,95670.22
2022-09-05T17:14:41.084Z,95670.41
2022-09-05T17:17:54.130Z,95668.28
2022-09-05T17:20:08.047Z,95679.00
2022-09-05T17:27:55.460Z,95680.72
2022-09-05T17:29:26.945Z,95687.19
2022-09-05T17:29:50.489Z,95675.53
2022-09-05T17:31:57.266Z,95676.16
2022-09-05T17:34:36.277Z,95681.19
2022-09-05T17:37:22.347Z,95678.56
2022-09-05T17:40:20.118Z,95684.72
2022-09-05T17:43:01.536Z,95692.41
2022-09-05T17:45:29.955Z,95691.22
2022-09-05T17:47:59.939Z,95685.97
2022-09-05T17:50:28.099Z,95698.66
2022-09-05T17:53:26.865Z,95700.72
2022-09-05T17:55:55.025Z,95698.38
2022-09-05T17:58:47.517Z,95698.66
2022-09-05T18:01:26.804Z,95687.03
2022-09-05T18:04:06.821Z,95692.81
2022-09-05T18:06:59.832Z,95701.78
2022-09-05T18:09:40.093Z,95709.13
2022-09-05T18:12:15.396Z,95701.00
2022-09-05T18:17:46.947Z,95696.50
2022-09-05T18:20:25.638Z,95706.53
2022-09-05T18:23:37.495Z,95703.88
2022-09-05T18:26:20.957Z,95699.06
2022-09-05T18:28:57.224Z,95701.72
2022-09-05T18:31:40.845Z,95701.69
2022-09-05T18:34:14.800Z,95698.78
2022-09-05T18:36:42.367Z,95696.91
2022-09-05T18:39:38.369Z,95697.47
2022-09-05T18:42:26.272Z,95697.97
2022-09-05T18:44:59.485Z,95686.59
2022-09-05T18:47:34.109Z,95699.25
2022-09-05T18:50:26.815Z,95700.06
2022-09-05T18:53:10.103Z,95695.31
2022-09-05T18:56:11.205Z,95700.03
2022-09-05T18:58:52.015Z,95696.31
2022-09-05T19:01:31.341Z,95696.78
2022-09-05T19:04:02.674Z,95701.94
2022-09-05T19:06:36.809Z,95690.25
2022-09-05T19:09:15.088Z,95696.47
2022-09-05T19:11:53.169Z,95687.69
2022-09-05T19:14:47.589Z,95685.25
2022-09-05T19:17:32.617Z,95693.06
2022-09-05T19:20:30.586Z,95686.66
2022-09-05T19:23:10.970Z,95682.91
2022-09-05T19:25:44.953Z,95691.25
2022-09-05T19:34:17.217Z,95691.72
2022-09-05T19:36:55.589Z,95675.84
2022-09-05T19:36:58.520Z,95692.25
2022-09-05T19:42:31.939Z,95682.13
2022-09-05T19:47:27.670Z,95674.78
2022-09-05T19:47:47.382Z,95680.69
2022-09-05T19:48:28.731Z,95676.84
2022-09-05T19:50:57.857Z,95678.88
2022-09-05T19:53:25.317Z,95675.72
2022-09-05T19:55:53.893Z,95680.16
2022-09-05T19:58:24.081Z,95684.69
2022-09-05T20:01:03.101Z,95668.84
2022-09-05T20:03:39.468Z,95681.44
2022-09-05T20:06:31.370Z,95683.22
2022-09-05T20:09:22.691Z,95685.00
2022-09-05T20:11:57.975Z,95678.00
2022-09-05T20:14:24.811Z,95676.44
2022-09-05T20:16:54.169Z,95667.50
2022-09-05T20:19:33.036Z,95668.00
2022-09-05T20:22:47.972Z,95667.19
2022-09-05T20:25:01.813Z,95655.78
2022-09-05T20:27:30.272Z,95656.72
2022-09-05T20:30:01.837Z,95668.19
2022-09-05T20:32:39.686Z,95665.97
2022-09-05T20:39:03.913Z,95661.69
2022-09-05T20:43:17.263Z,95664.25
2022-09-05T20:43:21.191Z,95653.44
2022-09-05T20:44:17.112Z,95667.75
2022-09-05T20:51:31.598Z,95662.19
2022-09-05T20:54:16.615Z,95658.13
2022-09-05T20:54:19.247Z,95651.78
2022-09-05T20:55:42.869Z,95649.31
2022-09-05T20:58:11.897Z,95640.47
2022-09-05T21:01:19.629Z,95646.78
2022-09-05T21:03:39.995Z,95658.38
2022-09-05T21:06:33.348Z,95663.16
2022-09-05T21:09:24.919Z,95664.66
2022-09-05T21:11:58.634Z,95658.84
2022-09-05T21:14:28.742Z,95657.75
2022-09-05T21:17:06.667Z,95663.44
2022-09-05T21:19:43.838Z,95653.50
2022-09-05T21:22:21.086Z,95656.94
2022-09-05T21:24:48.999Z,95647.56
2022-09-05T21:27:25.764Z,95652.81
2022-09-05T21:29:59.473Z,95644.03
2022-09-05T21:32:37.915Z,95655.50
2022-09-05T21:35:34.055Z,95658.13
2022-09-05T21:37:59.057Z,95665.34
2022-09-05T21:40:25.821Z,95667.91
2022-09-05T21:46:18.984Z,95657.88
2022-09-05T21:47:41.335Z,95654.97
2022-09-05T21:48:27.627Z,95661.81
2022-09-05T21:51:02.648Z,95657.97
2022-09-05T21:59:14.176Z,95650.00
2022-09-05T21:59:25.701Z,95656.19
2022-09-05T21:59:45.442Z,95656.56
2022-09-05T22:02:16.674Z,95661.25
2022-09-05T22:04:43.903Z,95653.63
2022-09-05T22:07:26.367Z,95653.84
2022-09-05T22:09:59.442Z,95649.66
2022-09-05T22:12:35.987Z,95652.91
2022-09-05T22:15:29.211Z,95652.53
2022-09-05T22:18:14.749Z,95659.84
2022-09-05T22:20:46.138Z,95653.16
2022-09-05T22:23:20.404Z,95658.72
2022-09-05T22:25:47.222Z,95654.59
2022-09-05T22:28:20.863Z,95654.13
2022-09-05T22:30:55.667Z,95647.94
2022-09-05T22:33:25.053Z,95650.66
2022-09-05T22:35:51.834Z,95651.22
2022-09-05T22:38:20.176Z,95634.47
2022-09-05T22:40:47.875Z,95646.28
2022-09-05T22:43:16.360Z,95643.06
2022-09-05T22:45:46.353Z,95654.53
2022-09-05T22:48:14.620Z,95650.56
2022-09-05T22:50:44.881Z,95655.44
2022-09-05T22:53:11.770Z,95657.56
2022-09-05T22:55:41.336Z,95659.81
2022-09-05T22:58:10.754Z,95661.69
2022-09-05T23:00:37.991Z,95660.91
2022-09-05T23:03:06.832Z,95664.66
2022-09-05T23:05:34.061Z,95657.75
2022-09-05T23:08:02.119Z,95658.84
2022-09-05T23:10:30.469Z,95663.06
2022-09-05T23:12:58.131Z,95660.91
2022-09-05T23:15:26.383Z,95663.78
2022-09-05T23:17:59.189Z,95639.13
2022-09-05T23:20:28.015Z,95661.88
2022-09-05T23:22:54.995Z,95660.28
2022-09-05T23:25:22.400Z,95657.09
2022-09-05T23:27:50.222Z,95656.00
2022-09-05T23:30:17.088Z,95652.81
2022-09-05T23:32:47.756Z,95652.81
2022-09-05T23:35:15.495Z,95657.25
2022-09-05T23:37:45.963Z,95661.22
2022-09-05T23:40:14.515Z,95659.00
2022-09-05T23:42:41.812Z,95665.66
2022-09-05T23:45:09.391Z,95660.41
2022-09-05T23:47:36.496Z,95661.75
2022-09-05T23:50:04.220Z,95664.63
2022-09-05T23:52:31.230Z,95662.94
2022-09-05T23:54:58.133Z,95656.19
2022-09-05T23:57:26.013Z,95656.69
2022-09-05T23:59:53.004Z,95659.28
